sensor_id;sensor_type;location;lat;lon;timestamp;pressure;altitude;pressure_sealevel;temperature;humidity
62103;BME280;48077;48.104;11.702;2023-03-31T00:01:03;95114.63;;;5.07;100.00
62103;BME280;48077;48.104;11.702;2023-03-31T00:03:29;95122.38;;;5.09;100.00
62103;BME280;48077;48.104;11.702;2023-03-31T00:05:57;95116.28;;;5.09;100.00
62103;BME280;48077;48.104;11.702;2023-03-31T00:08:20;95103.50;;;4.92;100.00
62103;BME280;48077;48.104;11.702;2023-03-31T00:10:45;95106.31;;;4.97;100.00
62103;BME280;48077;48.104;11.702;2023-03-31T00:13:11;95104.47;;;4.98;100.00
62103;BME280;48077;48.104;11.702;2023-03-31T00:15:35;95096.78;;;4.96;100.00
62103;BME280;48077;48.104;11.702;2023-03-31T00:17:58;95094.94;;;4.97;100.00
62103;BME280;48077;48.104;11.702;2023-03-31T00:20:22;95092.28;;;4.97;100.00
62103;BME280;48077;48.104;11.702;2023-03-31T00:22:45;95065.09;;;4.90;100.00
62103;BME280;48077;48.104;11.702;2023-03-31T00:25:09;95014.75;;;4.58;100.00
62103;BME280;48077;48.104;11.702;2023-03-31T00:27:33;95073.00;;;4.96;100.00
62103;BME280;48077;48.104;11.702;2023-03-31T00:29:56;95046.78;;;4.88;100.00
62103;BME280;48077;48.104;11.702;2023-03-31T00:32:19;95065.84;;;5.03;100.00
62103;BME280;48077;48.104;11.702;2023-03-31T00:34:44;95055.09;;;4.98;100.00
62103;BME280;48077;48.104;11.702;2023-03-31T00:37:11;95036.63;;;4.92;100.00
62103;BME280;48077;48.104;11.702;2023-03-31T00:39:38;95042.47;;;4.94;100.00
62103;BME280;48077;48.104;11.702;2023-03-31T00:42:03;95033.53;;;4.95;100.00
62103;BME280;48077;48.104;11.702;2023-03-31T00:44:28;95053.44;;;5.11;100.00
62103;BME280;48077;48.104;11.702;2023-03-31T00:47:11;95040.00;;;5.05;100.00
62103;BME280;48077;48.104;11.702;2023-03-31T00:49:41;95039.97;;;5.12;100.00
62103;BME280;48077;48.104;11.702;2023-03-31T00:52:16;95026.75;;;5.12;100.00
62103;BME280;48077;48.104;11.702;2023-03-31T00:54:43;95031.03;;;5.13;100.00
62103;BME280;48077;48.104;11.702;2023-03-31T00:57:08;95018.63;;;5.14;100.00
62103;BME280;48077;48.104;11.702;2023-03-31T00:59:39;95020.88;;;5.17;100.00
62103;BME280;48077;48.104;11.702;2023-03-31T01:02:05;95004.63;;;5.06;100.00
62103;BME280;48077;48.104;11.702;2023-03-31T01:04:34;95015.16;;;5.20;100.00
62103;BME280;48077;48.104;11.702;2023-03-31T01:07:04;95014.13;;;5.21;100.00
62103;BME280;48077;48.104;11.702;2023-03-31T01:09:31;95000.91;;;5.21;100.00
62103;BME280;48077;48.104;11.702;2023-03-31T01:11:57;94984.25;;;5.14;100.00
62103;BME280;48077;48.104;11.702;2023-03-31T01:14:22;94991.94;;;5.22;100.00
62103;BME280;48077;48.104;11.702;2023-03-31T01:16:46;94978.56;;;5.17;100.00
62103;BME280;48077;48.104;11.702;2023-03-31T01:19:19;94981.78;;;5.25;100.00
62103;BME280;48077;48.104;11.702;2023-03-31T01:24:38;94968.13;;;5.28;100.00
62103;BME280;48077;48.104;11.702;2023-03-31T01:27:31;94983.91;;;5.42;100.00
62103;BME280;48077;48.104;11.702;2023-03-31T01:30:35;94977.59;;;5.43;100.00
62103;BME280;48077;48.104;11.702;2023-03-31T01:41:36;94955.84;;;5.41;100.00
62103;BME280;48077;48.104;11.702;2023-03-31T01:44:17;94941.03;;;5.33;100.00
62103;BME280;48077;48.104;11.702;2023-03-31T01:46:51;94948.75;;;5.35;100.00
62103;BME280;48077;48.104;11.702;2023-03-31T01:52:07;94949.59;;;5.28;100.00
62103;BME280;48077;48.104;11.702;2023-03-31T01:54:38;94941.06;;;5.26;100.00
62103;BME280;48077;48.104;11.702;2023-03-31T01:57:13;94923.25;;;5.15;100.00
62103;BME280;48077;48.104;11.702;2023-03-31T01:59:42;94942.47;;;5.29;100.00
62103;BME280;48077;48.104;11.702;2023-03-31T02:02:18;94938.06;;;5.23;100.00
62103;BME280;48077;48.104;11.702;2023-03-31T02:04:48;94933.94;;;5.34;100.00
62103;BME280;48077;48.104;11.702;2023-03-31T02:07:23;94899.41;;;5.22;100.00
62103;BME280;48077;48.104;11.702;2023-03-31T02:09:53;94918.66;;;5.36;100.00
62103;BME280;48077;48.104;11.702;2023-03-31T02:12:24;94917.22;;;5.40;100.00
62103;BME280;48077;48.104;11.702;2023-03-31T02:14:51;94894.47;;;5.32;100.00
62103;BME280;48077;48.104;11.702;2023-03-31T02:17:18;94909.44;;;5.45;100.00
62103;BME280;48077;48.104;11.702;2023-03-31T02:19:48;94896.38;;;5.50;100.00
62103;BME280;48077;48.104;11.702;2023-03-31T02:22:14;94878.94;;;5.42;100.00
62103;BME280;48077;48.104;11.702;2023-03-31T02:24:39;94893.81;;;5.62;100.00
62103;BME280;48077;48.104;11.702;2023-03-31T02:27:26;94894.81;;;5.67;100.00
62103;BME280;48077;48.104;11.702;2023-03-31T02:29:50;94888.72;;;5.67;100.00
62103;BME280;48077;48.104;11.702;2023-03-31T02:32:16;94897.97;;;5.76;100.00
62103;BME280;48077;48.104;11.702;2023-03-31T02:34:43;94901.59;;;5.82;100.00
62103;BME280;48077;48.104;11.702;2023-03-31T02:37:06;94869.94;;;5.68;100.00
62103;BME280;48077;48.104;11.702;2023-03-31T02:39:33;94870.53;;;5.71;100.00
62103;BME280;48077;48.104;11.702;2023-03-31T02:41:59;94872.56;;;5.75;100.00
62103;BME280;48077;48.104;11.702;2023-03-31T02:44:25;94858.75;;;5.73;100.00
62103;BME280;48077;48.104;11.702;2023-03-31T02:46:51;94858.66;;;5.80;100.00
62103;BME280;48077;48.104;11.702;2023-03-31T02:49:15;94886.47;;;5.89;100.00
62103;BME280;48077;48.104;11.702;2023-03-31T02:52:02;94883.16;;;5.94;100.00
62103;BME280;48077;48.104;11.702;2023-03-31T03:00:05;94889.63;;;6.04;100.00
62103;BME280;48077;48.104;11.702;2023-03-31T03:02:52;94895.84;;;6.10;100.00
62103;BME280;48077;48.104;11.702;2023-03-31T03:07:55;94868.47;;;5.98;100.00
62103;BME280;48077;48.104;11.702;2023-03-31T03:16:29;94862.91;;;6.06;100.00
62103;BME280;48077;48.104;11.702;2023-03-31T03:19:00;94855.41;;;6.03;100.00
62103;BME280;48077;48.104;11.702;2023-03-31T03:21:24;94825.59;;;5.89;100.00
62103;BME280;48077;48.104;11.702;2023-03-31T03:23:48;94828.09;;;5.84;100.00
62103;BME280;48077;48.104;11.702;2023-03-31T03:26:13;94828.91;;;5.84;100.00
62103;BME280;48077;48.104;11.702;2023-03-31T03:28:37;94853.06;;;5.95;100.00
62103;BME280;48077;48.104;11.702;2023-03-31T03:31:00;94828.31;;;5.82;100.00
62103;BME280;48077;48.104;11.702;2023-03-31T03:33:25;94846.72;;;5.96;100.00
62103;BME280;48077;48.104;11.702;2023-03-31T03:35:48;94875.50;;;6.11;100.00
62103;BME280;48077;48.104;11.702;2023-03-31T03:38:12;94835.16;;;5.90;100.00
62103;BME280;48077;48.104;11.702;2023-03-31T03:40:35;94859.16;;;5.95;100.00
62103;BME280;48077;48.104;11.702;2023-03-31T03:42:58;94866.44;;;6.00;100.00
62103;BME280;48077;48.104;11.702;2023-03-31T03:45:22;94832.41;;;5.78;100.00
62103;BME280;48077;48.104;11.702;2023-03-31T03:47:45;94878.38;;;6.09;100.00
62103;BME280;48077;48.104;11.702;2023-03-31T03:50:09;94907.94;;;6.24;100.00
62103;BME280;48077;48.104;11.702;2023-03-31T03:52:32;94853.44;;;5.92;100.00
62103;BME280;48077;48.104;11.702;2023-03-31T03:54:58;94886.25;;;6.16;100.00
62103;BME280;48077;48.104;11.702;2023-03-31T03:57:24;94893.16;;;6.17;100.00
62103;BME280;48077;48.104;11.702;2023-03-31T03:59:48;94870.63;;;6.07;100.00
62103;BME280;48077;48.104;11.702;2023-03-31T04:02:11;94882.72;;;6.22;100.00
62103;BME280;48077;48.104;11.702;2023-03-31T04:04:35;94863.44;;;6.15;100.00
62103;BME280;48077;48.104;11.702;2023-03-31T04:06:58;94876.53;;;6.28;100.00
62103;BME280;48077;48.104;11.702;2023-03-31T04:09:21;94851.38;;;6.19;100.00
62103;BME280;48077;48.104;11.702;2023-03-31T04:11:45;94835.72;;;6.17;100.00
62103;BME280;48077;48.104;11.702;2023-03-31T04:14:08;94812.47;;;6.19;100.00
62103;BME280;48077;48.104;11.702;2023-03-31T04:16:31;94841.22;;;6.34;100.00
62103;BME280;48077;48.104;11.702;2023-03-31T04:18:56;94833.88;;;6.36;100.00
62103;BME280;48077;48.104;11.702;2023-03-31T04:21:21;94813.19;;;6.26;100.00
62103;BME280;48077;48.104;11.702;2023-03-31T04:23:45;94805.47;;;6.25;100.00
62103;BME280;48077;48.104;11.702;2023-03-31T04:26:08;94806.88;;;6.27;100.00
62103;BME280;48077;48.104;11.702;2023-03-31T04:28:32;94783.78;;;6.16;100.00
62103;BME280;48077;48.104;11.702;2023-03-31T04:30:56;94795.31;;;6.22;100.00
62103;BME280;48077;48.104;11.702;2023-03-31T04:33:20;94791.41;;;6.24;100.00
62103;BME280;48077;48.104;11.702;2023-03-31T04:35:47;94791.00;;;6.27;100.00
62103;BME280;48077;48.104;11.702;2023-03-31T04:38:15;94781.41;;;6.26;100.00
62103;BME280;48077;48.104;11.702;2023-03-31T04:40:40;94767.66;;;6.18;100.00
62103;BME280;48077;48.104;11.702;2023-03-31T04:43:04;94762.00;;;6.14;100.00
62103;BME280;48077;48.104;11.702;2023-03-31T04:45:29;94763.75;;;6.20;100.00
62103;BME280;48077;48.104;11.702;2023-03-31T04:47:53;94773.69;;;6.25;100.00
62103;BME280;48077;48.104;11.702;2023-03-31T04:50:16;94762.16;;;6.19;100.00
62103;BME280;48077;48.104;11.702;2023-03-31T04:52:42;94770.00;;;6.26;100.00
62103;BME280;48077;48.104;11.702;2023-03-31T04:55:05;94775.31;;;6.26;100.00
62103;BME280;48077;48.104;11.702;2023-03-31T04:57:29;94744.16;;;6.10;100.00
62103;BME280;48077;48.104;11.702;2023-03-31T04:59:52;94735.53;;;5.96;100.00
62103;BME280;48077;48.104;11.702;2023-03-31T05:02:16;94754.06;;;6.14;100.00
62103;BME280;48077;48.104;11.702;2023-03-31T05:04:45;94746.38;;;6.13;100.00
62103;BME280;48077;48.104;11.702;2023-03-31T05:07:08;94721.66;;;6.19;100.00
62103;BME280;48077;48.104;11.702;2023-03-31T05:09:32;94699.19;;;6.21;100.00
62103;BME280;48077;48.104;11.702;2023-03-31T05:11:56;94661.72;;;6.06;100.00
62103;BME280;48077;48.104;11.702;2023-03-31T05:14:19;94651.69;;;6.08;100.00
62103;BME280;48077;48.104;11.702;2023-03-31T05:16:45;94665.44;;;6.17;100.00
62103;BME280;48077;48.104;11.702;2023-03-31T05:19:08;94652.78;;;6.19;100.00
62103;BME280;48077;48.104;11.702;2023-03-31T05:21:32;94643.69;;;6.15;100.00
62103;BME280;48077;48.104;11.702;2023-03-31T05:23:56;94622.72;;;6.13;100.00
62103;BME280;48077;48.104;11.702;2023-03-31T05:26:19;94624.56;;;6.13;100.00
62103;BME280;48077;48.104;11.702;2023-03-31T05:28:45;94622.16;;;6.11;100.00
62103;BME280;48077;48.104;11.702;2023-03-31T05:31:09;94598.75;;;6.08;100.00
62103;BME280;48077;48.104;11.702;2023-03-31T05:33:35;94605.13;;;6.19;100.00
62103;BME280;48077;48.104;11.702;2023-03-31T05:36:02;94605.13;;;6.19;100.00
62103;BME280;48077;48.104;11.702;2023-03-31T05:38:26;94579.31;;;6.14;100.00
62103;BME280;48077;48.104;11.702;2023-03-31T05:40:54;94587.75;;;6.23;100.00
62103;BME280;48077;48.104;11.702;2023-03-31T05:43:18;94578.41;;;6.20;100.00
62103;BME280;48077;48.104;11.702;2023-03-31T05:45:41;94562.41;;;6.15;100.00
62103;BME280;48077;48.104;11.702;2023-03-31T05:48:04;94561.50;;;6.21;100.00
62103;BME280;48077;48.104;11.702;2023-03-31T05:50:28;94557.69;;;6.29;100.00
62103;BME280;48077;48.104;11.702;2023-03-31T05:52:51;94555.63;;;6.31;100.00
62103;BME280;48077;48.104;11.702;2023-03-31T05:55:15;94553.91;;;6.37;100.00
62103;BME280;48077;48.104;11.702;2023-03-31T05:57:39;94532.03;;;6.30;100.00
62103;BME280;48077;48.104;11.702;2023-03-31T06:00:03;94544.03;;;6.44;100.00
62103;BME280;48077;48.104;11.702;2023-03-31T06:02:28;94505.09;;;6.33;100.00
62103;BME280;48077;48.104;11.702;2023-03-31T06:04:51;94505.53;;;6.41;100.00
62103;BME280;48077;48.104;11.702;2023-03-31T06:07:15;94512.69;;;6.53;100.00
62103;BME280;48077;48.104;11.702;2023-03-31T06:09:39;94493.13;;;6.42;100.00
62103;BME280;48077;48.104;11.702;2023-03-31T06:12:03;94499.91;;;6.49;100.00
62103;BME280;48077;48.104;11.702;2023-03-31T06:14:27;94475.69;;;6.58;100.00
62103;BME280;48077;48.104;11.702;2023-03-31T06:16:50;94497.56;;;6.77;100.00
62103;BME280;48077;48.104;11.702;2023-03-31T06:19:14;94487.88;;;6.82;100.00
62103;BME280;48077;48.104;11.702;2023-03-31T06:21:37;94470.03;;;6.78;100.00
62103;BME280;48077;48.104;11.702;2023-03-31T06:24:01;94456.78;;;6.78;100.00
62103;BME280;48077;48.104;11.702;2023-03-31T06:26:25;94440.09;;;6.77;100.00
62103;BME280;48077;48.104;11.702;2023-03-31T06:28:49;94447.91;;;6.84;100.00
62103;BME280;48077;48.104;11.702;2023-03-31T06:31:23;94449.03;;;6.88;100.00
62103;BME280;48077;48.104;11.702;2023-03-31T06:33:47;94424.75;;;6.79;100.00
62103;BME280;48077;48.104;11.702;2023-03-31T06:36:12;94438.53;;;6.93;100.00
62103;BME280;48077;48.104;11.702;2023-03-31T06:38:43;94430.78;;;7.03;100.00
62103;BME280;48077;48.104;11.702;2023-03-31T06:41:08;94418.00;;;7.00;100.00
62103;BME280;48077;48.104;11.702;2023-03-31T06:43:34;94419.22;;;7.09;100.00
62103;BME280;48077;48.104;11.702;2023-03-31T06:45:57;94419.13;;;7.04;100.00
62103;BME280;48077;48.104;11.702;2023-03-31T06:48:24;94420.34;;;7.14;100.00
62103;BME280;48077;48.104;11.702;2023-03-31T06:50:48;94421.13;;;7.26;100.00
62103;BME280;48077;48.104;11.702;2023-03-31T06:53:14;94421.63;;;7.40;100.00
62103;BME280;48077;48.104;11.702;2023-03-31T06:55:37;94400.81;;;7.32;100.00
62103;BME280;48077;48.104;11.702;2023-03-31T06:58:00;94411.78;;;7.52;100.00
62103;BME280;48077;48.104;11.702;2023-03-31T07:00:24;94405.97;;;7.55;100.00
62103;BME280;48077;48.104;11.702;2023-03-31T07:02:49;94408.84;;;7.54;100.00
62103;BME280;48077;48.104;11.702;2023-03-31T07:05:12;94406.13;;;7.48;100.00
62103;BME280;48077;48.104;11.702;2023-03-31T07:07:36;94420.38;;;7.59;100.00
62103;BME280;48077;48.104;11.702;2023-03-31T07:09:59;94429.50;;;7.52;100.00
62103;BME280;48077;48.104;11.702;2023-03-31T07:12:22;94450.50;;;7.53;100.00
62103;BME280;48077;48.104;11.702;2023-03-31T07:14:46;94464.97;;;7.45;100.00
62103;BME280;48077;48.104;11.702;2023-03-31T07:17:09;94478.97;;;7.29;100.00
62103;BME280;48077;48.104;11.702;2023-03-31T07:19:38;94496.16;;;7.38;100.00
62103;BME280;48077;48.104;11.702;2023-03-31T07:22:04;94500.53;;;7.33;100.00
62103;BME280;48077;48.104;11.702;2023-03-31T07:24:28;94536.66;;;7.34;100.00
62103;BME280;48077;48.104;11.702;2023-03-31T07:26:52;94519.69;;;7.35;100.00
62103;BME280;48077;48.104;11.702;2023-03-31T07:29:15;94537.81;;;7.26;100.00
62103;BME280;48077;48.104;11.702;2023-03-31T07:31:41;94566.63;;;7.34;100.00
62103;BME280;48077;48.104;11.702;2023-03-31T07:34:05;94547.41;;;7.15;100.00
62103;BME280;48077;48.104;11.702;2023-03-31T07:36:31;94575.28;;;7.29;100.00
62103;BME280;48077;48.104;11.702;2023-03-31T07:38:55;94569.16;;;7.29;100.00
62103;BME280;48077;48.104;11.702;2023-03-31T07:41:20;94554.44;;;7.21;100.00
62103;BME280;48077;48.104;11.702;2023-03-31T07:43:44;94558.47;;;7.24;100.00
62103;BME280;48077;48.104;11.702;2023-03-31T07:46:14;94550.59;;;7.29;100.00
62103;BME280;48077;48.104;11.702;2023-03-31T07:48:37;94509.59;;;7.20;100.00
62103;BME280;48077;48.104;11.702;2023-03-31T07:51:00;94488.84;;;7.17;100.00
62103;BME280;48077;48.104;11.702;2023-03-31T07:53:24;94497.03;;;7.15;100.00
62103;BME280;48077;48.104;11.702;2023-03-31T07:55:49;94497.69;;;7.22;100.00
62103;BME280;48077;48.104;11.702;2023-03-31T07:58:13;94493.06;;;7.29;100.00
62103;BME280;48077;48.104;11.702;2023-03-31T08:00:36;94482.03;;;7.21;100.00
62103;BME280;48077;48.104;11.702;2023-03-31T08:02:59;94489.94;;;7.33;100.00
62103;BME280;48077;48.104;11.702;2023-03-31T08:05:23;94471.69;;;7.36;100.00
62103;BME280;48077;48.104;11.702;2023-03-31T08:07:48;94453.84;;;7.32;100.00
62103;BME280;48077;48.104;11.702;2023-03-31T08:10:15;94429.28;;;7.53;100.00
62103;BME280;48077;48.104;11.702;2023-03-31T08:12:39;94415.13;;;7.47;100.00
62103;BME280;48077;48.104;11.702;2023-03-31T08:15:03;94411.34;;;7.60;100.00
62103;BME280;48077;48.104;11.702;2023-03-31T08:17:26;94389.41;;;7.65;100.00
62103;BME280;48077;48.104;11.702;2023-03-31T08:19:50;94422.78;;;7.78;100.00
62103;BME280;48077;48.104;11.702;2023-03-31T08:22:14;94406.59;;;7.62;100.00
62103;BME280;48077;48.104;11.702;2023-03-31T08:24:37;94408.94;;;7.59;100.00
62103;BME280;48077;48.104;11.702;2023-03-31T08:27:01;94408.47;;;7.62;100.00
62103;BME280;48077;48.104;11.702;2023-03-31T08:29:24;94401.72;;;7.54;100.00
62103;BME280;48077;48.104;11.702;2023-03-31T08:31:49;94395.03;;;7.68;100.00
62103;BME280;48077;48.104;11.702;2023-03-31T08:34:13;94403.41;;;7.77;100.00
62103;BME280;48077;48.104;11.702;2023-03-31T08:36:37;94400.44;;;7.74;100.00
62103;BME280;48077;48.104;11.702;2023-03-31T08:39:00;94399.94;;;7.77;100.00
62103;BME280;48077;48.104;11.702;2023-03-31T08:44:04;94389.16;;;7.66;100.00
62103;BME280;48077;48.104;11.702;2023-03-31T08:46:30;94411.22;;;7.67;100.00
62103;BME280;48077;48.104;11.702;2023-03-31T08:48:58;94416.66;;;7.60;100.00
62103;BME280;48077;48.104;11.702;2023-03-31T08:51:28;94410.22;;;7.56;100.00
62103;BME280;48077;48.104;11.702;2023-03-31T08:53:59;94441.44;;;7.66;100.00
62103;BME280;48077;48.104;11.702;2023-03-31T08:56:26;94445.00;;;7.72;100.00
62103;BME280;48077;48.104;11.702;2023-03-31T08:58:50;94448.44;;;7.55;100.00
62103;BME280;48077;48.104;11.702;2023-03-31T09:01:59;94483.25;;;7.59;100.00
62103;BME280;48077;48.104;11.702;2023-03-31T09:07:11;94505.13;;;7.66;100.00
62103;BME280;48077;48.104;11.702;2023-03-31T09:10:09;94517.13;;;7.68;100.00
62103;BME280;48077;48.104;11.702;2023-03-31T09:13:05;94476.91;;;7.77;100.00
62103;BME280;48077;48.104;11.702;2023-03-31T09:15:54;94495.66;;;7.87;100.00
62103;BME280;48077;48.104;11.702;2023-03-31T09:18:34;94482.72;;;7.90;100.00
62103;BME280;48077;48.104;11.702;2023-03-31T09:21:40;94470.81;;;7.93;100.00
62103;BME280;48077;48.104;11.702;2023-03-31T09:24:05;94445.72;;;8.01;100.00
62103;BME280;48077;48.104;11.702;2023-03-31T09:26:38;94450.69;;;8.14;100.00
62103;BME280;48077;48.104;11.702;2023-03-31T09:29:06;94439.44;;;8.24;100.00
62103;BME280;48077;48.104;11.702;2023-03-31T09:31:37;94455.47;;;8.46;100.00
62103;BME280;48077;48.104;11.702;2023-03-31T09:34:16;94431.59;;;8.51;100.00
62103;BME280;48077;48.104;11.702;2023-03-31T09:36:44;94435.09;;;8.74;100.00
62103;BME280;48077;48.104;11.702;2023-03-31T09:39:12;94424.38;;;8.90;100.00
62103;BME280;48077;48.104;11.702;2023-03-31T09:41:38;94415.78;;;9.32;100.00
62103;BME280;48077;48.104;11.702;2023-03-31T09:44:15;94410.63;;;9.48;100.00
62103;BME280;48077;48.104;11.702;2023-03-31T09:46:43;94404.13;;;9.66;100.00
62103;BME280;48077;48.104;11.702;2023-03-31T09:49:12;94385.19;;;9.62;100.00
62103;BME280;48077;48.104;11.702;2023-03-31T09:51:41;94374.34;;;9.69;100.00
62103;BME280;48077;48.104;11.702;2023-03-31T09:54:14;94391.31;;;9.95;100.00
62103;BME280;48077;48.104;11.702;2023-03-31T09:59:04;94373.66;;;9.84;100.00
62103;BME280;48077;48.104;11.702;2023-03-31T10:01:28;94388.63;;;9.90;100.00
62103;BME280;48077;48.104;11.702;2023-03-31T10:03:53;94376.31;;;9.84;100.00
62103;BME280;48077;48.104;11.702;2023-03-31T10:06:17;94397.25;;;10.02;100.00
62103;BME280;48077;48.104;11.702;2023-03-31T10:09:09;94400.78;;;10.13;100.00
62103;BME280;48077;48.104;11.702;2023-03-31T10:11:32;94391.63;;;10.04;100.00
62103;BME280;48077;48.104;11.702;2023-03-31T10:14:14;94398.81;;;9.98;100.00
62103;BME280;48077;48.104;11.702;2023-03-31T10:16:53;94401.81;;;10.12;100.00
62103;BME280;48077;48.104;11.702;2023-03-31T10:19:33;94388.53;;;10.17;100.00
62103;BME280;48077;48.104;11.702;2023-03-31T10:21:59;94368.03;;;10.23;100.00
62103;BME280;48077;48.104;11.702;2023-03-31T10:24:23;94369.28;;;10.47;100.00
62103;BME280;48077;48.104;11.702;2023-03-31T10:26:48;94353.63;;;10.66;100.00
62103;BME280;48077;48.104;11.702;2023-03-31T10:29:12;94358.47;;;10.74;100.00
62103;BME280;48077;48.104;11.702;2023-03-31T10:31:38;94358.50;;;10.80;100.00
62103;BME280;48077;48.104;11.702;2023-03-31T10:34:06;94346.50;;;10.82;100.00
62103;BME280;48077;48.104;11.702;2023-03-31T10:36:31;94346.19;;;10.73;100.00
62103;BME280;48077;48.104;11.702;2023-03-31T10:38:57;94314.94;;;10.59;100.00
62103;BME280;48077;48.104;11.702;2023-03-31T10:41:26;94329.47;;;11.04;100.00
62103;BME280;48077;48.104;11.702;2023-03-31T10:43:53;94299.06;;;11.10;100.00
62103;BME280;48077;48.104;11.702;2023-03-31T10:46:17;94318.28;;;11.22;100.00
62103;BME280;48077;48.104;11.702;2023-03-31T10:48:41;94318.34;;;11.38;100.00
62103;BME280;48077;48.104;11.702;2023-03-31T10:53:41;94308.16;;;11.60;100.00
62103;BME280;48077;48.104;11.702;2023-03-31T11:11:57;94257.19;;;11.46;98.53
62103;BME280;48077;48.104;11.702;2023-03-31T11:20:07;94251.56;;;10.86;99.25
62103;BME280;48077;48.104;11.702;2023-03-31T11:22:46;94261.69;;;10.79;99.95
62103;BME280;48077;48.104;11.702;2023-03-31T11:25:12;94281.63;;;10.61;99.17
62103;BME280;48077;48.104;11.702;2023-03-31T11:30:57;94323.28;;;10.25;100.00
62103;BME280;48077;48.104;11.702;2023-03-31T11:33:41;94357.16;;;9.87;100.00
62103;BME280;48077;48.104;11.702;2023-03-31T11:42:21;94340.72;;;8.98;100.00
62103;BME280;48077;48.104;11.702;2023-03-31T11:44:51;94314.91;;;8.71;100.00
62103;BME280;48077;48.104;11.702;2023-03-31T11:47:19;94293.72;;;8.55;100.00
62103;BME280;48077;48.104;11.702;2023-03-31T11:49:52;94305.09;;;8.50;100.00
62103;BME280;48077;48.104;11.702;2023-03-31T11:52:18;94271.78;;;8.42;100.00
62103;BME280;48077;48.104;11.702;2023-03-31T11:54:56;94283.38;;;8.58;100.00
62103;BME280;48077;48.104;11.702;2023-03-31T11:57:32;94264.94;;;8.46;100.00
62103;BME280;48077;48.104;11.702;2023-03-31T12:00:08;94271.75;;;8.64;100.00
62103;BME280;48077;48.104;11.702;2023-03-31T12:05:20;94250.44;;;8.86;100.00
62103;BME280;48077;48.104;11.702;2023-03-31T12:10:44;94233.03;;;9.38;100.00
62103;BME280;48077;48.104;11.702;2023-03-31T12:15:57;94210.69;;;10.60;100.00
62103;BME280;48077;48.104;11.702;2023-03-31T12:18:24;94207.25;;;10.65;100.00
62103;BME280;48077;48.104;11.702;2023-03-31T12:20:54;94210.44;;;10.57;99.74
62103;BME280;48077;48.104;11.702;2023-03-31T12:23:29;94183.47;;;10.38;99.09
62103;BME280;48077;48.104;11.702;2023-03-31T12:28:57;94174.88;;;10.25;100.00
62103;BME280;48077;48.104;11.702;2023-03-31T12:31:23;94192.78;;;10.30;100.00
62103;BME280;48077;48.104;11.702;2023-03-31T12:34:02;94181.50;;;10.18;100.00
62103;BME280;48077;48.104;11.702;2023-03-31T12:36:34;94193.34;;;10.47;98.22
62103;BME280;48077;48.104;11.702;2023-03-31T12:44:51;94194.16;;;10.53;98.93
62103;BME280;48077;48.104;11.702;2023-03-31T12:50:26;94193.34;;;10.42;100.00
62103;BME280;48077;48.104;11.702;2023-03-31T12:53:01;94169.25;;;10.27;100.00
62103;BME280;48077;48.104;11.702;2023-03-31T12:55:39;94200.75;;;10.35;100.00
62103;BME280;48077;48.104;11.702;2023-03-31T13:03:41;94166.97;;;10.61;99.25
62103;BME280;48077;48.104;11.702;2023-03-31T13:06:07;94179.16;;;11.75;92.66
62103;BME280;48077;48.104;11.702;2023-03-31T13:08:52;94216.50;;;12.01;92.29
62103;BME280;48077;48.104;11.702;2023-03-31T13:11:17;94203.97;;;11.91;87.85
62103;BME280;48077;48.104;11.702;2023-03-31T13:13:57;94194.09;;;11.97;84.56
62103;BME280;48077;48.104;11.702;2023-03-31T13:16:23;94193.34;;;11.60;72.50
62103;BME280;48077;48.104;11.702;2023-03-31T13:18:51;94199.78;;;11.39;70.24
62103;BME280;48077;48.104;11.702;2023-03-31T13:21:15;94204.63;;;11.01;69.81
62103;BME280;48077;48.104;11.702;2023-03-31T13:23:43;94233.66;;;10.87;66.94
62103;BME280;48077;48.104;11.702;2023-03-31T13:34:26;94155.84;;;9.86;72.81
62103;BME280;48077;48.104;11.702;2023-03-31T13:40:23;94169.94;;;9.91;70.36
62103;BME280;48077;48.104;11.702;2023-03-31T13:45:47;94149.22;;;9.99;70.78
62103;BME280;48077;48.104;11.702;2023-03-31T13:48:23;94171.63;;;10.08;71.11
62103;BME280;48077;48.104;11.702;2023-03-31T13:51:14;94156.56;;;11.26;67.70
62103;BME280;48077;48.104;11.702;2023-03-31T13:59:39;94144.53;;;13.33;61.33
62103;BME280;48077;48.104;11.702;2023-03-31T14:02:30;94160.59;;;14.10;59.36
62103;BME280;48077;48.104;11.702;2023-03-31T14:05:10;94153.75;;;14.99;56.97
62103;BME280;48077;48.104;11.702;2023-03-31T14:07:56;94168.44;;;14.88;57.80
62103;BME280;48077;48.104;11.702;2023-03-31T14:10:41;94173.31;;;13.75;57.68
62103;BME280;48077;48.104;11.702;2023-03-31T14:13:12;94177.38;;;13.09;62.58
62103;BME280;48077;48.104;11.702;2023-03-31T14:15:39;94169.81;;;12.43;65.19
62103;BME280;48077;48.104;11.702;2023-03-31T14:18:05;94178.53;;;12.09;66.33
62103;BME280;48077;48.104;11.702;2023-03-31T14:20:54;94178.66;;;11.58;69.21
62103;BME280;48077;48.104;11.702;2023-03-31T14:23:35;94183.00;;;11.18;70.21
62103;BME280;48077;48.104;11.702;2023-03-31T14:26:09;94189.13;;;10.87;71.91
62103;BME280;48077;48.104;11.702;2023-03-31T14:31:29;94176.84;;;10.61;74.18
62103;BME280;48077;48.104;11.702;2023-03-31T14:34:11;94180.28;;;10.51;73.65
62103;BME280;48077;48.104;11.702;2023-03-31T14:36:47;94175.72;;;10.41;74.55
62103;BME280;48077;48.104;11.702;2023-03-31T14:39:21;94171.38;;;10.20;74.37
62103;BME280;48077;48.104;11.702;2023-03-31T14:41:51;94159.41;;;10.17;75.90
62103;BME280;48077;48.104;11.702;2023-03-31T14:44:16;94185.78;;;10.29;73.68
62103;BME280;48077;48.104;11.702;2023-03-31T14:46:40;94214.78;;;10.05;73.42
62103;BME280;48077;48.104;11.702;2023-03-31T14:49:21;94224.88;;;10.03;75.87
62103;BME280;48077;48.104;11.702;2023-03-31T14:51:47;94246.56;;;9.69;73.90
62103;BME280;48077;48.104;11.702;2023-03-31T14:54:18;94221.94;;;9.51;74.70